GLD1043 SBPJ-SBSN
Flight info
| Callsign | GLD1043 |
|---|---|
| Flight time | 1h 34m |
| Altitude | 36000 |
| Route | OPNUP DCT ITALA DCT RONUB DCT ANRUS DCT GELVU DCT ATIDO |
| Aircraft | B738/M-SDE2E3FGHIRWXY/LB1 |
Departure
| Time | 2026-04-18 18:35 |
|---|---|
| Airport | Brigadeiro Lysias Rodrigues Airport (SBPJ) |
Arrival
| Time | 2026-04-18 20:09 |
|---|---|
| Airport | Santarém - Maestro Wilson Fonseca International Airport (SBSN) |
| Time | Latitude | Longitude | Altitude | Speed | Heading |
|---|---|---|---|---|---|
| 2026-04-18 18:08 | -10.29413 | -48.35842 | 749 ft | 0 kts | 213° |
| 2026-04-18 18:25 | -10.29405 | -48.35837 | 746 ft | 4 kts | 215° |
| 2026-04-18 18:26 | -10.29383 | -48.35821 | 744 ft | 4 kts | 210° |
| 2026-04-18 18:26 | -10.29360 | -48.35814 | 746 ft | 4 kts | 162° |
| 2026-04-18 18:26 | -10.29334 | -48.35820 | 745 ft | 4 kts | 185° |
| 2026-04-18 18:26 | -10.29310 | -48.35811 | 746 ft | 4 kts | 220° |
| 2026-04-18 18:27 | -10.29292 | -48.35795 | 744 ft | 2 kts | 207° |
| 2026-04-18 18:27 | -10.29291 | -48.35795 | 744 ft | 0 kts | 207° |
| 2026-04-18 18:28 | -10.29293 | -48.35796 | 744 ft | 2 kts | 207° |
| 2026-04-18 18:29 | -10.29318 | -48.35810 | 748 ft | 8 kts | 210° |
| 2026-04-18 18:29 | -10.29366 | -48.35802 | 747 ft | 7 kts | 131° |
| 2026-04-18 18:29 | -10.29396 | -48.35757 | 748 ft | 8 kts | 122° |
| 2026-04-18 18:29 | -10.29429 | -48.35707 | 746 ft | 9 kts | 124° |
| 2026-04-18 18:30 | -10.29460 | -48.35660 | 748 ft | 6 kts | 123° |
| 2026-04-18 18:30 | -10.29454 | -48.35620 | 744 ft | 6 kts | 45° |
| 2026-04-18 18:30 | -10.29412 | -48.35591 | 746 ft | 8 kts | 33° |
| 2026-04-18 18:30 | -10.29365 | -48.35560 | 749 ft | 9 kts | 33° |
| 2026-04-18 18:31 | -10.29311 | -48.35524 | 748 ft | 9 kts | 37° |
| 2026-04-18 18:31 | -10.29312 | -48.35460 | 746 ft | 11 kts | 120° |
| 2026-04-18 18:31 | -10.29355 | -48.35393 | 749 ft | 12 kts | 123° |
| 2026-04-18 18:31 | -10.29401 | -48.35321 | 748 ft | 12 kts | 123° |
| 2026-04-18 18:32 | -10.29434 | -48.35271 | 749 ft | 13 kts | 123° |
| 2026-04-18 18:32 | -10.29488 | -48.35189 | 747 ft | 16 kts | 124° |
| 2026-04-18 18:32 | -10.29554 | -48.35089 | 747 ft | 18 kts | 124° |
| 2026-04-18 18:32 | -10.29616 | -48.34994 | 748 ft | 16 kts | 123° |
| 2026-04-18 18:33 | -10.29675 | -48.34905 | 746 ft | 13 kts | 123° |
| 2026-04-18 18:33 | -10.29720 | -48.34830 | 747 ft | 10 kts | 110° |
| 2026-04-18 18:33 | -10.29718 | -48.34766 | 746 ft | 9 kts | 101° |
| 2026-04-18 18:33 | -10.29758 | -48.34752 | 747 ft | 6 kts | 222° |
| 2026-04-18 18:34 | -10.29754 | -48.34783 | 747 ft | 2 kts | 303° |
| 2026-04-18 18:34 | -10.29675 | -48.34905 | 746 ft | 54 kts | 304° |
| 2026-04-18 18:34 | -10.29328 | -48.35435 | 749 ft | 124 kts | 303° |
| 2026-04-18 18:34 | -10.28752 | -48.36317 | 924 ft | 165 kts | 303° |
| 2026-04-18 18:35 | -10.28106 | -48.37293 | 1685 ft | 167 kts | 304° |
| 2026-04-18 18:35 | -10.27444 | -48.38297 | 2382 ft | 177 kts | 303° |
| 2026-04-18 18:35 | -10.26750 | -48.39368 | 3027 ft | 189 kts | 302° |
| 2026-04-18 18:35 | -10.25988 | -48.40567 | 3441 ft | 215 kts | 303° |
| 2026-04-18 18:36 | -10.25005 | -48.41803 | 3663 ft | 238 kts | 326° |
| 2026-04-18 18:36 | -10.23389 | -48.42273 | 3890 ft | 255 kts | 5° |
| 2026-04-18 18:36 | -10.21564 | -48.42098 | 4344 ft | 271 kts | 355° |
| 2026-04-18 18:36 | -10.19774 | -48.42742 | 5081 ft | 277 kts | 333° |
| 2026-04-18 18:37 | -10.18072 | -48.43665 | 5908 ft | 278 kts | 333° |
| 2026-04-18 18:37 | -10.16363 | -48.44552 | 6690 ft | 280 kts | 335° |
| 2026-04-18 18:37 | -10.14600 | -48.45421 | 7417 ft | 283 kts | 336° |
| 2026-04-18 18:37 | -10.12797 | -48.46272 | 8106 ft | 287 kts | 336° |
| 2026-04-18 18:38 | -10.10964 | -48.47110 | 8799 ft | 291 kts | 336° |
| 2026-04-18 18:38 | -10.09098 | -48.47943 | 9502 ft | 295 kts | 336° |
| 2026-04-18 18:38 | -10.07193 | -48.48781 | 10121 ft | 301 kts | 336° |
| 2026-04-18 18:38 | -10.05195 | -48.49650 | 10291 ft | 324 kts | 337° |
| 2026-04-18 18:39 | -10.03056 | -48.50575 | 10449 ft | 345 kts | 337° |
| 2026-04-18 18:39 | -10.00793 | -48.51547 | 10740 ft | 358 kts | 337° |
| 2026-04-18 18:39 | -9.98483 | -48.52537 | 11258 ft | 363 kts | 337° |
| 2026-04-18 18:39 | -9.96181 | -48.53523 | 11877 ft | 364 kts | 337° |
| 2026-04-18 18:40 | -9.93833 | -48.54527 | 12502 ft | 367 kts | 337° |
| 2026-04-18 18:40 | -9.91460 | -48.55540 | 13114 ft | 371 kts | 337° |
| 2026-04-18 18:40 | -9.89071 | -48.56561 | 13716 ft | 374 kts | 337° |
| 2026-04-18 18:40 | -9.86658 | -48.57591 | 14261 ft | 378 kts | 337° |
| 2026-04-18 18:41 | -9.84223 | -48.58631 | 14812 ft | 381 kts | 337° |
| 2026-04-18 18:41 | -9.81771 | -48.59678 | 15368 ft | 384 kts | 337° |
| 2026-04-18 18:41 | -9.79294 | -48.60735 | 15920 ft | 387 kts | 337° |
| 2026-04-18 18:41 | -9.76799 | -48.61800 | 16448 ft | 391 kts | 337° |
| 2026-04-18 18:42 | -9.74280 | -48.62875 | 16966 ft | 395 kts | 337° |
| 2026-04-18 18:42 | -9.71728 | -48.63964 | 17483 ft | 398 kts | 337° |
| 2026-04-18 18:42 | -9.69231 | -48.65134 | 17982 ft | 402 kts | 328° |
| 2026-04-18 18:42 | -9.67137 | -48.67013 | 18414 ft | 405 kts | 309° |
| 2026-04-18 18:43 | -9.63653 | -48.71519 | 19319 ft | 409 kts | 307° |
| 2026-04-18 18:43 | -9.61910 | -48.73820 | 19748 ft | 412 kts | 307° |
| 2026-04-18 18:43 | -9.60156 | -48.76128 | 20181 ft | 415 kts | 307° |
| 2026-04-18 18:44 | -9.58386 | -48.78444 | 20636 ft | 417 kts | 307° |
| 2026-04-18 18:44 | -9.56601 | -48.80769 | 21064 ft | 419 kts | 307° |
| 2026-04-18 18:44 | -9.54799 | -48.83104 | 21482 ft | 422 kts | 307° |
| 2026-04-18 18:44 | -9.52981 | -48.85455 | 21893 ft | 425 kts | 307° |
| 2026-04-18 18:45 | -9.51153 | -48.87815 | 22295 ft | 427 kts | 307° |
| 2026-04-18 18:45 | -9.49314 | -48.90186 | 22711 ft | 429 kts | 308° |
| 2026-04-18 18:45 | -9.47462 | -48.92573 | 23099 ft | 432 kts | 308° |
| 2026-04-18 18:45 | -9.45603 | -48.94969 | 23463 ft | 434 kts | 308° |
| 2026-04-18 18:46 | -9.43752 | -48.97353 | 23774 ft | 436 kts | 308° |
| 2026-04-18 18:46 | -9.41876 | -48.99770 | 24111 ft | 438 kts | 307° |
| 2026-04-18 18:46 | -9.39988 | -49.02202 | 24411 ft | 440 kts | 307° |
| 2026-04-18 18:46 | -9.38090 | -49.04647 | 24719 ft | 442 kts | 307° |
| 2026-04-18 18:47 | -9.36189 | -49.07096 | 25039 ft | 443 kts | 307° |
| 2026-04-18 18:47 | -9.34281 | -49.09551 | 25351 ft | 445 kts | 307° |
| 2026-04-18 18:47 | -9.32361 | -49.12023 | 25661 ft | 446 kts | 307° |
| 2026-04-18 18:47 | -9.30439 | -49.14496 | 25946 ft | 448 kts | 307° |
| 2026-04-18 18:48 | -9.28507 | -49.16982 | 26238 ft | 450 kts | 307° |
| 2026-04-18 18:48 | -9.26572 | -49.19472 | 26528 ft | 451 kts | 307° |
| 2026-04-18 18:48 | -9.24630 | -49.21970 | 26813 ft | 452 kts | 307° |
| 2026-04-18 18:48 | -9.22678 | -49.24480 | 27088 ft | 454 kts | 307° |
| 2026-04-18 18:49 | -9.20722 | -49.26995 | 27354 ft | 456 kts | 307° |
| 2026-04-18 18:49 | -9.18757 | -49.29522 | 27623 ft | 457 kts | 307° |
| 2026-04-18 18:49 | -9.16787 | -49.32053 | 27871 ft | 459 kts | 307° |
| 2026-04-18 18:49 | -9.14826 | -49.34573 | 28105 ft | 461 kts | 307° |
| 2026-04-18 18:50 | -9.12841 | -49.37122 | 28358 ft | 462 kts | 307° |
| 2026-04-18 18:50 | -9.10844 | -49.39688 | 28600 ft | 463 kts | 307° |
| 2026-04-18 18:50 | -9.08847 | -49.42252 | 28836 ft | 465 kts | 307° |
| 2026-04-18 18:50 | -9.06843 | -49.44825 | 29067 ft | 466 kts | 307° |
| 2026-04-18 18:51 | -9.04833 | -49.47405 | 29292 ft | 468 kts | 307° |
| 2026-04-18 18:51 | -9.02818 | -49.49991 | 29513 ft | 469 kts | 307° |
| 2026-04-18 18:51 | -9.00791 | -49.52593 | 29737 ft | 470 kts | 307° |
| 2026-04-18 18:51 | -8.98767 | -49.55188 | 29997 ft | 470 kts | 307° |
| 2026-04-18 18:52 | -8.96772 | -49.57746 | 30298 ft | 468 kts | 307° |
| 2026-04-18 18:52 | -8.94763 | -49.60322 | 30609 ft | 466 kts | 307° |
| 2026-04-18 18:52 | -8.92760 | -49.62890 | 30889 ft | 465 kts | 307° |
| 2026-04-18 18:52 | -8.90752 | -49.65463 | 31146 ft | 464 kts | 307° |
| 2026-04-18 18:53 | -8.88748 | -49.68032 | 31436 ft | 463 kts | 307° |
| 2026-04-18 18:53 | -8.86748 | -49.70594 | 31734 ft | 462 kts | 307° |
| 2026-04-18 18:53 | -8.84757 | -49.73145 | 32041 ft | 461 kts | 307° |
| 2026-04-18 18:53 | -8.82790 | -49.75664 | 32326 ft | 460 kts | 307° |
| 2026-04-18 18:54 | -8.80807 | -49.78204 | 32622 ft | 459 kts | 307° |
| 2026-04-18 18:54 | -8.78828 | -49.80737 | 32926 ft | 458 kts | 307° |
| 2026-04-18 18:54 | -8.76858 | -49.83260 | 33233 ft | 457 kts | 307° |
| 2026-04-18 18:54 | -8.74888 | -49.85781 | 33532 ft | 456 kts | 307° |
| 2026-04-18 18:55 | -8.72925 | -49.88294 | 33844 ft | 455 kts | 307° |
| 2026-04-18 18:55 | -8.70964 | -49.90803 | 34113 ft | 454 kts | 307° |
| 2026-04-18 18:55 | -8.69006 | -49.93307 | 34347 ft | 454 kts | 308° |
| 2026-04-18 18:55 | -8.67049 | -49.95810 | 34550 ft | 454 kts | 308° |
| 2026-04-18 18:56 | -8.65088 | -49.98318 | 34783 ft | 454 kts | 308° |
| 2026-04-18 18:56 | -8.63128 | -50.00823 | 34982 ft | 455 kts | 308° |
| 2026-04-18 18:56 | -8.61190 | -50.03300 | 35203 ft | 455 kts | 308° |
| 2026-04-18 18:56 | -8.59235 | -50.05798 | 35469 ft | 454 kts | 308° |
| 2026-04-18 18:57 | -8.57278 | -50.08298 | 35727 ft | 453 kts | 308° |
| 2026-04-18 18:57 | -8.53349 | -50.13318 | 35804 ft | 456 kts | 308° |
| 2026-04-18 18:58 | -8.49427 | -50.18325 | 35800 ft | 452 kts | 308° |
| 2026-04-18 18:58 | -8.45540 | -50.23287 | 35804 ft | 449 kts | 308° |
| 2026-04-18 18:59 | -8.41667 | -50.28228 | 35800 ft | 448 kts | 308° |
| 2026-04-18 18:59 | -8.37774 | -50.33194 | 35819 ft | 454 kts | 308° |
| 2026-04-18 19:00 | -8.33845 | -50.38204 | 35812 ft | 459 kts | 308° |
| 2026-04-18 19:00 | -8.29873 | -50.43266 | 35810 ft | 460 kts | 308° |
| 2026-04-18 19:01 | -8.25901 | -50.48327 | 35813 ft | 460 kts | 308° |
| 2026-04-18 19:01 | -8.21923 | -50.53394 | 35808 ft | 459 kts | 308° |
| 2026-04-18 19:02 | -8.17952 | -50.58450 | 35809 ft | 459 kts | 308° |
| 2026-04-18 19:02 | -8.13994 | -50.63487 | 35812 ft | 458 kts | 308° |
| 2026-04-18 19:03 | -8.10037 | -50.68522 | 35814 ft | 457 kts | 308° |
| 2026-04-18 19:03 | -8.06110 | -50.73515 | 35809 ft | 456 kts | 308° |
| 2026-04-18 19:04 | -8.00206 | -50.81021 | 35809 ft | 455 kts | 308° |
| 2026-04-18 19:04 | -7.96276 | -50.86016 | 35814 ft | 454 kts | 308° |
| 2026-04-18 19:05 | -7.90384 | -50.93499 | 35808 ft | 454 kts | 308° |
| 2026-04-18 19:06 | -7.86450 | -50.98495 | 35818 ft | 455 kts | 308° |
| 2026-04-18 19:06 | -7.80524 | -51.06015 | 35809 ft | 457 kts | 308° |
| 2026-04-18 19:07 | -7.76586 | -51.11012 | 35806 ft | 458 kts | 308° |
| 2026-04-18 19:07 | -7.72613 | -51.16051 | 35804 ft | 459 kts | 308° |
| 2026-04-18 19:08 | -7.68632 | -51.21099 | 35799 ft | 460 kts | 308° |
| 2026-04-18 19:08 | -7.64651 | -51.26146 | 35804 ft | 460 kts | 308° |
| 2026-04-18 19:09 | -7.60576 | -51.31120 | 35803 ft | 460 kts | 311° |
| 2026-04-18 19:09 | -7.56227 | -51.35857 | 35803 ft | 460 kts | 313° |
| 2026-04-18 19:10 | -7.51841 | -51.40547 | 35809 ft | 460 kts | 313° |
| 2026-04-18 19:10 | -7.47469 | -51.45265 | 35803 ft | 460 kts | 312° |
| 2026-04-18 19:11 | -7.43149 | -51.49961 | 35806 ft | 460 kts | 312° |
| 2026-04-18 19:11 | -7.38803 | -51.54694 | 35796 ft | 459 kts | 313° |
| 2026-04-18 19:12 | -7.34464 | -51.59418 | 35800 ft | 459 kts | 313° |
| 2026-04-18 19:12 | -7.30122 | -51.64143 | 35802 ft | 459 kts | 313° |
| 2026-04-18 19:13 | -7.25782 | -51.68863 | 35803 ft | 459 kts | 312° |
| 2026-04-18 19:13 | -7.21437 | -51.73587 | 35800 ft | 459 kts | 313° |
| 2026-04-18 19:14 | -7.17125 | -51.78274 | 35800 ft | 459 kts | 313° |
| 2026-04-18 19:14 | -7.12779 | -51.82996 | 35811 ft | 459 kts | 313° |
| 2026-04-18 19:15 | -7.08436 | -51.87714 | 35801 ft | 460 kts | 313° |
| 2026-04-18 19:15 | -7.04089 | -51.92434 | 35809 ft | 459 kts | 313° |
| 2026-04-18 19:16 | -6.99744 | -51.97151 | 35800 ft | 459 kts | 313° |
| 2026-04-18 19:16 | -6.95401 | -52.01865 | 35808 ft | 459 kts | 313° |
| 2026-04-18 19:17 | -6.91058 | -52.06577 | 35802 ft | 459 kts | 313° |
| 2026-04-18 19:17 | -6.86743 | -52.11257 | 35805 ft | 459 kts | 313° |
| 2026-04-18 19:18 | -6.82396 | -52.15971 | 35811 ft | 460 kts | 313° |
| 2026-04-18 19:18 | -6.78036 | -52.20697 | 35809 ft | 460 kts | 313° |
| 2026-04-18 19:19 | -6.74410 | -52.24628 | 35809 ft | 461 kts | 313° |
| 2026-04-18 19:19 | -6.69298 | -52.30166 | 35808 ft | 462 kts | 312° |
| 2026-04-18 19:20 | -6.64949 | -52.34876 | 35810 ft | 463 kts | 313° |
| 2026-04-18 19:20 | -6.60565 | -52.39624 | 35805 ft | 463 kts | 312° |
| 2026-04-18 19:21 | -6.56908 | -52.43583 | 35809 ft | 464 kts | 312° |
| 2026-04-18 19:21 | -6.52509 | -52.48344 | 35813 ft | 464 kts | 313° |
| 2026-04-18 19:22 | -6.48111 | -52.53103 | 35811 ft | 465 kts | 313° |
| 2026-04-18 19:22 | -6.43709 | -52.57866 | 35810 ft | 465 kts | 313° |
| 2026-04-18 19:23 | -6.39304 | -52.62631 | 35811 ft | 465 kts | 313° |
| 2026-04-18 19:23 | -6.34902 | -52.67390 | 35810 ft | 465 kts | 313° |
| 2026-04-18 19:24 | -6.30448 | -52.72094 | 35811 ft | 464 kts | 314° |
| 2026-04-18 19:24 | -6.25882 | -52.76685 | 35810 ft | 464 kts | 315° |
| 2026-04-18 19:25 | -6.21304 | -52.81273 | 35812 ft | 464 kts | 315° |
| 2026-04-18 19:25 | -6.16756 | -52.85861 | 35809 ft | 463 kts | 315° |
| 2026-04-18 19:26 | -6.12219 | -52.90454 | 35813 ft | 463 kts | 315° |
| 2026-04-18 19:26 | -6.07677 | -52.95054 | 35818 ft | 463 kts | 315° |
| 2026-04-18 19:27 | -6.03175 | -52.99613 | 35813 ft | 463 kts | 315° |
| 2026-04-18 19:27 | -5.98633 | -53.04209 | 35816 ft | 463 kts | 315° |
| 2026-04-18 19:28 | -5.94089 | -53.08807 | 35816 ft | 463 kts | 315° |
| 2026-04-18 19:28 | -5.89553 | -53.13395 | 35815 ft | 463 kts | 315° |
| 2026-04-18 19:29 | -5.85016 | -53.17984 | 35816 ft | 463 kts | 315° |
| 2026-04-18 19:29 | -5.80505 | -53.22544 | 35818 ft | 463 kts | 315° |
| 2026-04-18 19:30 | -5.75965 | -53.27133 | 35809 ft | 463 kts | 315° |
| 2026-04-18 19:30 | -5.71422 | -53.31724 | 35818 ft | 463 kts | 315° |
| 2026-04-18 19:31 | -5.66880 | -53.36312 | 35814 ft | 463 kts | 315° |
| 2026-04-18 19:31 | -5.62334 | -53.40904 | 35816 ft | 464 kts | 315° |
| 2026-04-18 19:32 | -5.57780 | -53.45503 | 35816 ft | 464 kts | 315° |
| 2026-04-18 19:32 | -5.53224 | -53.50103 | 35820 ft | 464 kts | 315° |
| 2026-04-18 19:33 | -5.48706 | -53.54664 | 35822 ft | 464 kts | 315° |
| 2026-04-18 19:33 | -5.44150 | -53.59261 | 35814 ft | 463 kts | 315° |
| 2026-04-18 19:34 | -5.39608 | -53.63844 | 35813 ft | 463 kts | 315° |
| 2026-04-18 19:34 | -5.35075 | -53.68416 | 35812 ft | 462 kts | 315° |
| 2026-04-18 19:35 | -5.30545 | -53.72984 | 35813 ft | 461 kts | 315° |
| 2026-04-18 19:35 | -5.26020 | -53.77547 | 35811 ft | 461 kts | 315° |
| 2026-04-18 19:36 | -5.21493 | -53.82109 | 35817 ft | 461 kts | 315° |
| 2026-04-18 19:36 | -5.16968 | -53.86670 | 35820 ft | 461 kts | 315° |
| 2026-04-18 19:37 | -5.12435 | -53.91238 | 35818 ft | 463 kts | 315° |
| 2026-04-18 19:37 | -5.07887 | -53.95820 | 35822 ft | 464 kts | 315° |
| 2026-04-18 19:38 | -5.03332 | -54.00409 | 35817 ft | 465 kts | 315° |
| 2026-04-18 19:38 | -4.98762 | -54.05011 | 35821 ft | 466 kts | 315° |
| 2026-04-18 19:39 | -4.93946 | -54.09301 | 35814 ft | 467 kts | 327° |
| 2026-04-18 19:39 | -4.88250 | -54.12424 | 35819 ft | 468 kts | 333° |
| 2026-04-18 19:40 | -4.82453 | -54.15411 | 35819 ft | 469 kts | 333° |
| 2026-04-18 19:40 | -4.76647 | -54.18448 | 35819 ft | 471 kts | 333° |
| 2026-04-18 19:41 | -4.70843 | -54.21523 | 35821 ft | 472 kts | 333° |
| 2026-04-18 19:41 | -4.65031 | -54.24611 | 35818 ft | 472 kts | 333° |
| 2026-04-18 19:42 | -4.59226 | -54.27694 | 35822 ft | 472 kts | 333° |
| 2026-04-18 19:42 | -4.53420 | -54.30775 | 35822 ft | 471 kts | 333° |
| 2026-04-18 19:43 | -4.47668 | -54.33826 | 35823 ft | 470 kts | 333° |
| 2026-04-18 19:43 | -4.41857 | -54.36908 | 35205 ft | 476 kts | 333° |
| 2026-04-18 19:44 | -4.38938 | -54.38456 | 34614 ft | 474 kts | 333° |
| 2026-04-18 19:44 | -4.36017 | -54.40006 | 33953 ft | 476 kts | 333° |
| 2026-04-18 19:44 | -4.30151 | -54.43116 | 32717 ft | 473 kts | 332° |
| 2026-04-18 19:45 | -4.27255 | -54.44652 | 32197 ft | 469 kts | 332° |
| 2026-04-18 19:45 | -4.24382 | -54.46175 | 31713 ft | 465 kts | 332° |
| 2026-04-18 19:45 | -4.21522 | -54.47678 | 31220 ft | 462 kts | 334° |
| 2026-04-18 19:45 | -4.18580 | -54.48833 | 30734 ft | 459 kts | 343° |
| 2026-04-18 19:46 | -4.15479 | -54.49540 | 30233 ft | 456 kts | 352° |
| 2026-04-18 19:46 | -4.12325 | -54.49766 | 29729 ft | 452 kts | 358° |
| 2026-04-18 19:46 | -4.09190 | -54.49878 | 29169 ft | 449 kts | 358° |
| 2026-04-18 19:46 | -4.06077 | -54.49986 | 28667 ft | 445 kts | 358° |
| 2026-04-18 19:47 | -4.02999 | -54.50100 | 28171 ft | 441 kts | 358° |
| 2026-04-18 19:47 | -3.99938 | -54.50221 | 27685 ft | 437 kts | 358° |
| 2026-04-18 19:47 | -3.96907 | -54.50347 | 27209 ft | 433 kts | 358° |
| 2026-04-18 19:47 | -3.93947 | -54.50474 | 26741 ft | 429 kts | 358° |
| 2026-04-18 19:48 | -3.90972 | -54.50605 | 26273 ft | 426 kts | 358° |
| 2026-04-18 19:48 | -3.88029 | -54.50735 | 25800 ft | 423 kts | 358° |
| 2026-04-18 19:48 | -3.85094 | -54.50865 | 25319 ft | 420 kts | 358° |
| 2026-04-18 19:48 | -3.82181 | -54.50994 | 24844 ft | 418 kts | 358° |
| 2026-04-18 19:49 | -3.79280 | -54.51122 | 24373 ft | 416 kts | 358° |
| 2026-04-18 19:49 | -3.76386 | -54.51250 | 23902 ft | 413 kts | 358° |
| 2026-04-18 19:49 | -3.73515 | -54.51377 | 23436 ft | 412 kts | 358° |
| 2026-04-18 19:49 | -3.70663 | -54.51503 | 22896 ft | 409 kts | 359° |
| 2026-04-18 19:50 | -3.67832 | -54.51628 | 22418 ft | 405 kts | 359° |
| 2026-04-18 19:50 | -3.65024 | -54.51752 | 21945 ft | 402 kts | 359° |
| 2026-04-18 19:50 | -3.62246 | -54.51875 | 21490 ft | 398 kts | 358° |
| 2026-04-18 19:50 | -3.59526 | -54.51995 | 21044 ft | 394 kts | 358° |
| 2026-04-18 19:51 | -3.56793 | -54.52115 | 20598 ft | 391 kts | 358° |
| 2026-04-18 19:51 | -3.54078 | -54.52235 | 20160 ft | 388 kts | 358° |
| 2026-04-18 19:51 | -3.51390 | -54.52353 | 19723 ft | 386 kts | 358° |
| 2026-04-18 19:51 | -3.48708 | -54.52471 | 19264 ft | 385 kts | 358° |
| 2026-04-18 19:52 | -3.46037 | -54.52589 | 18828 ft | 383 kts | 358° |
| 2026-04-18 19:52 | -3.43384 | -54.52706 | 18392 ft | 381 kts | 358° |
| 2026-04-18 19:52 | -3.40746 | -54.52822 | 17921 ft | 379 kts | 358° |
| 2026-04-18 19:52 | -3.38125 | -54.52937 | 17461 ft | 376 kts | 358° |
| 2026-04-18 19:53 | -3.35522 | -54.53052 | 17015 ft | 372 kts | 358° |
| 2026-04-18 19:53 | -3.32948 | -54.53166 | 16585 ft | 369 kts | 358° |
| 2026-04-18 19:53 | -3.27865 | -54.53390 | 15744 ft | 362 kts | 358° |
| 2026-04-18 19:54 | -3.25382 | -54.53499 | 15337 ft | 359 kts | 358° |
| 2026-04-18 19:54 | -3.22894 | -54.53609 | 14924 ft | 357 kts | 358° |
| 2026-04-18 19:54 | -3.20416 | -54.53718 | 14516 ft | 354 kts | 358° |
| 2026-04-18 19:54 | -3.17960 | -54.53826 | 14093 ft | 353 kts | 358° |
| 2026-04-18 19:55 | -3.15505 | -54.53934 | 13672 ft | 351 kts | 358° |
| 2026-04-18 19:55 | -3.13073 | -54.54042 | 13222 ft | 349 kts | 358° |
| 2026-04-18 19:55 | -3.10650 | -54.54148 | 12795 ft | 346 kts | 358° |
| 2026-04-18 19:55 | -3.08282 | -54.54253 | 12380 ft | 343 kts | 358° |
| 2026-04-18 19:56 | -3.05907 | -54.54357 | 11971 ft | 341 kts | 358° |
| 2026-04-18 19:56 | -3.03548 | -54.54461 | 11566 ft | 338 kts | 358° |
| 2026-04-18 19:56 | -3.01206 | -54.54564 | 11165 ft | 336 kts | 358° |
| 2026-04-18 19:56 | -2.98880 | -54.54667 | 10765 ft | 333 kts | 358° |
| 2026-04-18 19:57 | -2.96567 | -54.54769 | 10414 ft | 329 kts | 358° |
| 2026-04-18 19:57 | -2.94334 | -54.54867 | 10241 ft | 314 kts | 358° |
| 2026-04-18 19:57 | -2.92200 | -54.54962 | 10109 ft | 301 kts | 358° |
| 2026-04-18 19:57 | -2.90136 | -54.55053 | 9971 ft | 292 kts | 358° |
| 2026-04-18 19:58 | -2.88131 | -54.55141 | 9837 ft | 285 kts | 358° |
| 2026-04-18 19:58 | -2.86152 | -54.55228 | 9530 ft | 284 kts | 358° |
| 2026-04-18 19:58 | -2.84186 | -54.55314 | 9233 ft | 282 kts | 358° |
| 2026-04-18 19:58 | -2.82229 | -54.55400 | 8936 ft | 280 kts | 358° |
| 2026-04-18 19:59 | -2.80310 | -54.55484 | 8643 ft | 279 kts | 358° |
| 2026-04-18 19:59 | -2.78373 | -54.55570 | 8343 ft | 278 kts | 358° |
| 2026-04-18 19:59 | -2.76443 | -54.55654 | 8051 ft | 277 kts | 358° |
| 2026-04-18 19:59 | -2.74523 | -54.55739 | 7752 ft | 276 kts | 358° |
| 2026-04-18 20:00 | -2.72608 | -54.55823 | 7467 ft | 275 kts | 358° |
| 2026-04-18 20:00 | -2.70696 | -54.55907 | 7177 ft | 274 kts | 358° |
| 2026-04-18 20:00 | -2.68794 | -54.55991 | 6888 ft | 273 kts | 357° |
| 2026-04-18 20:00 | -2.66891 | -54.56075 | 6599 ft | 273 kts | 357° |
| 2026-04-18 20:01 | -2.64995 | -54.56158 | 6284 ft | 272 kts | 357° |
| 2026-04-18 20:01 | -2.63101 | -54.56242 | 5991 ft | 272 kts | 357° |
| 2026-04-18 20:01 | -2.61237 | -54.56324 | 5706 ft | 271 kts | 357° |
| 2026-04-18 20:01 | -2.59336 | -54.56407 | 5410 ft | 270 kts | 357° |
| 2026-04-18 20:02 | -2.57488 | -54.56489 | 5128 ft | 269 kts | 357° |
| 2026-04-18 20:02 | -2.55626 | -54.56571 | 4846 ft | 267 kts | 357° |
| 2026-04-18 20:02 | -2.53770 | -54.56653 | 4559 ft | 266 kts | 357° |
| 2026-04-18 20:02 | -2.51936 | -54.56733 | 4419 ft | 257 kts | 357° |
| 2026-04-18 20:03 | -2.50201 | -54.56809 | 4345 ft | 242 kts | 357° |
| 2026-04-18 20:03 | -2.48566 | -54.56894 | 4225 ft | 228 kts | 352° |
| 2026-04-18 20:03 | -2.47139 | -54.57434 | 4066 ft | 216 kts | 329° |
| 2026-04-18 20:03 | -2.45864 | -54.58167 | 3927 ft | 206 kts | 330° |
| 2026-04-18 20:04 | -2.44639 | -54.58852 | 3815 ft | 198 kts | 330° |
| 2026-04-18 20:04 | -2.43465 | -54.59506 | 3740 ft | 195 kts | 330° |
| 2026-04-18 20:04 | -2.42269 | -54.60173 | 3674 ft | 199 kts | 330° |
| 2026-04-18 20:04 | -2.41048 | -54.60853 | 3459 ft | 200 kts | 330° |
| 2026-04-18 20:05 | -2.39990 | -54.61692 | 3250 ft | 193 kts | 302° |
| 2026-04-18 20:05 | -2.39628 | -54.62942 | 3078 ft | 185 kts | 274° |
| 2026-04-18 20:05 | -2.39772 | -54.64207 | 2864 ft | 181 kts | 261° |
| 2026-04-18 20:05 | -2.39977 | -54.65431 | 2708 ft | 174 kts | 262° |
| 2026-04-18 20:06 | -2.40173 | -54.66646 | 2502 ft | 178 kts | 263° |
| 2026-04-18 20:06 | -2.40369 | -54.67844 | 2278 ft | 169 kts | 262° |
| 2026-04-18 20:06 | -2.40553 | -54.68969 | 2062 ft | 158 kts | 262° |
| 2026-04-18 20:06 | -2.40722 | -54.69998 | 1847 ft | 144 kts | 262° |
| 2026-04-18 20:07 | -2.40880 | -54.70969 | 1688 ft | 141 kts | 262° |
| 2026-04-18 20:07 | -2.41038 | -54.71932 | 1485 ft | 136 kts | 262° |
| 2026-04-18 20:07 | -2.41186 | -54.72837 | 1315 ft | 132 kts | 263° |
| 2026-04-18 20:07 | -2.41335 | -54.73747 | 1145 ft | 135 kts | 262° |
| 2026-04-18 20:08 | -2.41436 | -54.74365 | 1024 ft | 136 kts | 263° |
| 2026-04-18 20:08 | -2.41588 | -54.75293 | 825 ft | 134 kts | 262° |
| 2026-04-18 20:08 | -2.41783 | -54.76494 | 577 ft | 131 kts | 263° |
| 2026-04-18 20:08 | -2.41929 | -54.77387 | 451 ft | 127 kts | 262° |
| 2026-04-18 20:09 | -2.42033 | -54.77977 | 300 ft | 128 kts | 264° |
| 2026-04-18 20:09 | -2.42166 | -54.78822 | 209 ft | 113 kts | 261° |
| 2026-04-18 20:09 | -2.42261 | -54.79422 | 215 ft | 56 kts | 261° |
| 2026-04-18 20:09 | -2.42302 | -54.79664 | 205 ft | 27 kts | 260° |
| 2026-04-18 20:10 | -2.42327 | -54.79822 | 204 ft | 22 kts | 261° |
| 2026-04-18 20:10 | -2.42351 | -54.79970 | 209 ft | 21 kts | 260° |
| 2026-04-18 20:10 | -2.42375 | -54.80111 | 212 ft | 20 kts | 261° |
| 2026-04-18 20:10 | -2.42395 | -54.80235 | 211 ft | 14 kts | 257° |
| 2026-04-18 20:11 | -2.42438 | -54.80288 | 208 ft | 9 kts | 223° |
| 2026-04-18 20:11 | -2.42423 | -54.80329 | 208 ft | 8 kts | 1° |
| 2026-04-18 20:11 | -2.42400 | -54.80270 | 206 ft | 13 kts | 82° |
| 2026-04-18 20:11 | -2.42382 | -54.80164 | 205 ft | 18 kts | 80° |
| 2026-04-18 20:12 | -2.42360 | -54.80031 | 211 ft | 21 kts | 80° |
| 2026-04-18 20:12 | -2.42335 | -54.79880 | 210 ft | 22 kts | 81° |
| 2026-04-18 20:12 | -2.42312 | -54.79734 | 204 ft | 21 kts | 81° |
| 2026-04-18 20:12 | -2.42289 | -54.79594 | 210 ft | 20 kts | 80° |
| 2026-04-18 20:13 | -2.42266 | -54.79456 | 206 ft | 20 kts | 80° |
| 2026-04-18 20:13 | -2.42244 | -54.79326 | 206 ft | 18 kts | 81° |
| 2026-04-18 20:13 | -2.42225 | -54.79203 | 208 ft | 18 kts | 80° |
| 2026-04-18 20:13 | -2.42205 | -54.79082 | 212 ft | 18 kts | 81° |
| 2026-04-18 20:14 | -2.42184 | -54.78953 | 207 ft | 19 kts | 80° |
| 2026-04-18 20:14 | -2.42164 | -54.78831 | 208 ft | 16 kts | 86° |
| 2026-04-18 20:14 | -2.42199 | -54.78741 | 208 ft | 13 kts | 130° |
| 2026-04-18 20:14 | -2.42255 | -54.78687 | 209 ft | 10 kts | 137° |
| 2026-04-18 20:15 | -2.42307 | -54.78641 | 210 ft | 10 kts | 137° |
| 2026-04-18 20:15 | -2.42350 | -54.78595 | 214 ft | 6 kts | 121° |
| 2026-04-18 20:15 | -2.42337 | -54.78554 | 207 ft | 6 kts | 59° |
| 2026-04-18 20:15 | -2.42333 | -54.78523 | 211 ft | 3 kts | 126° |
| 2026-04-18 20:16 | -2.42349 | -54.78513 | 216 ft | 3 kts | 150° |
| 2026-04-18 20:16 | -2.42362 | -54.78506 | 208 ft | 1 kts | 153° |